sensor_id;sensor_type;location;lat;lon;timestamp;pressure;altitude;pressure_sealevel;temperature;humidity
49515;BME280;35415;47.870;16.058;2023-07-31T00:02:04;97214.56;;;18.80;86.40
49515;BME280;35415;47.870;16.058;2023-07-31T00:04:31;97219.53;;;18.78;86.98
49515;BME280;35415;47.870;16.058;2023-07-31T00:07:01;97153.00;;;18.27;87.35
49515;BME280;35415;47.870;16.058;2023-07-31T00:09:29;97198.19;;;18.54;87.30
49515;BME280;35415;47.870;16.058;2023-07-31T00:11:57;97188.09;;;18.54;88.74
49515;BME280;35415;47.870;16.058;2023-07-31T00:14:31;97219.06;;;18.67;88.88
49515;BME280;35415;47.870;16.058;2023-07-31T00:16:58;97148.38;;;18.19;88.53
49515;BME280;35415;47.870;16.058;2023-07-31T00:19:25;97228.47;;;18.61;89.39
49515;BME280;35415;47.870;16.058;2023-07-31T00:21:54;97142.75;;;18.07;89.56
49515;BME280;35415;47.870;16.058;2023-07-31T00:24:23;97148.34;;;18.01;89.60
49515;BME280;35415;47.870;16.058;2023-07-31T00:26:51;97225.28;;;18.50;90.09
49515;BME280;35415;47.870;16.058;2023-07-31T00:29:18;97152.84;;;18.06;91.80
49515;BME280;35415;47.870;16.058;2023-07-31T00:31:46;97146.75;;;18.00;90.68
49515;BME280;35415;47.870;16.058;2023-07-31T00:34:13;97213.09;;;18.48;90.84
49515;BME280;35415;47.870;16.058;2023-07-31T00:36:41;97191.44;;;18.25;91.63
49515;BME280;35415;47.870;16.058;2023-07-31T00:39:08;97219.81;;;18.42;92.80
49515;BME280;35415;47.870;16.058;2023-07-31T00:41:37;97212.28;;;18.39;91.09
49515;BME280;35415;47.870;16.058;2023-07-31T00:44:05;97162.44;;;18.03;91.73
49515;BME280;35415;47.870;16.058;2023-07-31T00:46:35;97191.59;;;18.20;91.81
49515;BME280;35415;47.870;16.058;2023-07-31T00:49:04;97159.56;;;18.00;90.99
49515;BME280;35415;47.870;16.058;2023-07-31T00:51:34;97201.06;;;18.23;93.47
49515;BME280;35415;47.870;16.058;2023-07-31T00:54:04;97186.16;;;18.20;93.00
49515;BME280;35415;47.870;16.058;2023-07-31T00:56:32;97189.03;;;18.24;92.23
49515;BME280;35415;47.870;16.058;2023-07-31T00:59:01;97198.81;;;18.25;92.53
49515;BME280;35415;47.870;16.058;2023-07-31T01:01:33;97214.53;;;18.37;94.01
49515;BME280;35415;47.870;16.058;2023-07-31T01:04:02;97160.50;;;17.95;94.88
49515;BME280;35415;47.870;16.058;2023-07-31T01:06:38;97161.13;;;17.92;93.82
49515;BME280;35415;47.870;16.058;2023-07-31T01:09:14;97186.78;;;18.09;94.05
49515;BME280;35415;47.870;16.058;2023-07-31T01:11:52;97218.22;;;18.32;93.53
49515;BME280;35415;47.870;16.058;2023-07-31T01:14:22;97133.44;;;17.82;94.56
49515;BME280;35415;47.870;16.058;2023-07-31T01:16:49;97175.72;;;18.05;94.00
49515;BME280;35415;47.870;16.058;2023-07-31T01:19:19;97145.28;;;17.86;95.10
49515;BME280;35415;47.870;16.058;2023-07-31T01:21:59;97216.63;;;18.31;93.30
49515;BME280;35415;47.870;16.058;2023-07-31T01:24:32;97147.84;;;17.82;95.83
49515;BME280;35415;47.870;16.058;2023-07-31T01:27:09;97220.28;;;18.26;92.87
49515;BME280;35415;47.870;16.058;2023-07-31T01:29:46;97192.22;;;18.00;91.90
49515;BME280;35415;47.870;16.058;2023-07-31T01:32:14;97200.91;;;18.19;93.73
49515;BME280;35415;47.870;16.058;2023-07-31T01:34:45;97177.16;;;18.02;97.37
49515;BME280;35415;47.870;16.058;2023-07-31T01:37:13;97200.72;;;18.16;97.47
49515;BME280;35415;47.870;16.058;2023-07-31T01:39:41;97208.25;;;18.19;96.85
49515;BME280;35415;47.870;16.058;2023-07-31T01:42:12;97179.22;;;17.97;96.11
49515;BME280;35415;47.870;16.058;2023-07-31T01:44:39;97169.78;;;17.86;94.99
49515;BME280;35415;47.870;16.058;2023-07-31T01:47:07;97206.97;;;18.16;95.50
49515;BME280;35415;47.870;16.058;2023-07-31T01:49:34;97170.41;;;17.83;99.38
49515;BME280;35415;47.870;16.058;2023-07-31T01:52:02;97153.72;;;17.76;98.31
49515;BME280;35415;47.870;16.058;2023-07-31T01:54:30;97144.13;;;17.69;97.75
49515;BME280;35415;47.870;16.058;2023-07-31T01:56:57;97174.56;;;17.89;97.77
49515;BME280;35415;47.870;16.058;2023-07-31T01:59:28;97163.16;;;17.78;97.12
49515;BME280;35415;47.870;16.058;2023-07-31T02:01:56;97159.47;;;17.74;97.46
49515;BME280;35415;47.870;16.058;2023-07-31T02:04:27;97183.38;;;17.86;97.49
49515;BME280;35415;47.870;16.058;2023-07-31T02:06:54;97160.06;;;17.62;97.45
49515;BME280;35415;47.870;16.058;2023-07-31T02:09:22;97202.63;;;17.98;97.55
49515;BME280;35415;47.870;16.058;2023-07-31T02:11:53;97197.19;;;17.98;97.54
49515;BME280;35415;47.870;16.058;2023-07-31T02:14:21;97195.69;;;17.92;100.00
49515;BME280;35415;47.870;16.058;2023-07-31T02:16:50;97203.22;;;17.95;99.06
49515;BME280;35415;47.870;16.058;2023-07-31T02:19:18;97171.00;;;17.80;98.93
49515;BME280;35415;47.870;16.058;2023-07-31T02:21:48;97109.75;;;17.42;97.96
49515;BME280;35415;47.870;16.058;2023-07-31T02:24:15;97192.19;;;17.91;96.66
49515;BME280;35415;47.870;16.058;2023-07-31T02:26:43;97154.94;;;17.61;96.34
49515;BME280;35415;47.870;16.058;2023-07-31T02:29:12;97126.88;;;17.43;96.59
49515;BME280;35415;47.870;16.058;2023-07-31T02:31:40;97150.28;;;17.61;96.15
49515;BME280;35415;47.870;16.058;2023-07-31T02:34:12;97144.19;;;17.47;97.19
49515;BME280;35415;47.870;16.058;2023-07-31T02:36:39;97152.84;;;17.49;95.16
49515;BME280;35415;47.870;16.058;2023-07-31T02:39:07;97159.09;;;17.58;96.83
49515;BME280;35415;47.870;16.058;2023-07-31T02:41:34;97212.50;;;17.85;93.83
49515;BME280;35415;47.870;16.058;2023-07-31T02:44:02;97169.63;;;17.51;93.13
49515;BME280;35415;47.870;16.058;2023-07-31T02:46:29;97196.72;;;17.65;93.71
49515;BME280;35415;47.870;16.058;2023-07-31T02:48:58;97175.06;;;17.51;95.49
49515;BME280;35415;47.870;16.058;2023-07-31T02:51:26;97137.84;;;17.29;94.75
49515;BME280;35415;47.870;16.058;2023-07-31T02:53:54;97218.22;;;17.75;95.44
49515;BME280;35415;47.870;16.058;2023-07-31T02:56:21;97157.50;;;17.26;94.31
49515;BME280;35415;47.870;16.058;2023-07-31T02:58:49;97176.94;;;17.42;95.95
49515;BME280;35415;47.870;16.058;2023-07-31T03:01:16;97159.59;;;17.29;96.64
49515;BME280;35415;47.870;16.058;2023-07-31T03:03:43;97175.97;;;17.38;93.35
49515;BME280;35415;47.870;16.058;2023-07-31T03:06:10;97199.38;;;17.48;94.77
49515;BME280;35415;47.870;16.058;2023-07-31T03:08:39;97192.28;;;17.38;95.74
49515;BME280;35415;47.870;16.058;2023-07-31T03:11:07;97218.75;;;17.55;92.62
49515;BME280;35415;47.870;16.058;2023-07-31T03:13:34;97175.75;;;17.26;95.27
49515;BME280;35415;47.870;16.058;2023-07-31T03:16:01;97228.50;;;17.56;95.60
49515;BME280;35415;47.870;16.058;2023-07-31T03:18:29;97171.41;;;17.16;95.08
49515;BME280;35415;47.870;16.058;2023-07-31T03:20:56;97185.97;;;17.20;95.11
49515;BME280;35415;47.870;16.058;2023-07-31T03:23:24;97201.59;;;17.14;95.95
49515;BME280;35415;47.870;16.058;2023-07-31T03:26:00;97227.63;;;17.38;94.92
49515;BME280;35415;47.870;16.058;2023-07-31T03:28:28;97247.22;;;17.49;95.65
49515;BME280;35415;47.870;16.058;2023-07-31T03:30:56;97175.72;;;16.95;95.77
49515;BME280;35415;47.870;16.058;2023-07-31T03:33:25;97198.38;;;17.12;97.53
49515;BME280;35415;47.870;16.058;2023-07-31T03:35:53;97233.31;;;17.28;97.49
49515;BME280;35415;47.870;16.058;2023-07-31T03:38:21;97258.81;;;17.40;94.35
49515;BME280;35415;47.870;16.058;2023-07-31T03:40:48;97217.59;;;17.16;95.77
49515;BME280;35415;47.870;16.058;2023-07-31T03:43:17;97190.44;;;16.94;94.87
49515;BME280;35415;47.870;16.058;2023-07-31T03:45:44;97238.25;;;17.26;95.49
49515;BME280;35415;47.870;16.058;2023-07-31T03:48:12;97239.38;;;17.25;95.78
49515;BME280;35415;47.870;16.058;2023-07-31T03:50:39;97242.59;;;17.27;97.10
49515;BME280;35415;47.870;16.058;2023-07-31T03:53:06;97253.53;;;17.35;96.15
49515;BME280;35415;47.870;16.058;2023-07-31T03:55:33;97201.28;;;16.94;94.26
49515;BME280;35415;47.870;16.058;2023-07-31T03:58:01;97189.75;;;16.88;95.59
49515;BME280;35415;47.870;16.058;2023-07-31T04:00:30;97211.69;;;16.92;98.27
49515;BME280;35415;47.870;16.058;2023-07-31T04:02:57;97172.09;;;16.77;97.67
49515;BME280;35415;47.870;16.058;2023-07-31T04:05:24;97261.63;;;17.27;99.76
49515;BME280;35415;47.870;16.058;2023-07-31T04:07:52;97235.63;;;17.12;97.44
49515;BME280;35415;47.870;16.058;2023-07-31T04:10:19;97262.41;;;17.27;94.03
49515;BME280;35415;47.870;16.058;2023-07-31T04:12:46;97222.97;;;17.07;98.92
49515;BME280;35415;47.870;16.058;2023-07-31T04:15:14;97224.47;;;17.13;97.93
49515;BME280;35415;47.870;16.058;2023-07-31T04:17:43;97219.28;;;17.03;100.00
49515;BME280;35415;47.870;16.058;2023-07-31T04:20:11;97229.06;;;17.13;99.79
49515;BME280;35415;47.870;16.058;2023-07-31T04:22:38;97195.19;;;16.88;100.00
49515;BME280;35415;47.870;16.058;2023-07-31T04:25:09;97209.22;;;17.04;99.69
49515;BME280;35415;47.870;16.058;2023-07-31T04:27:36;97235.19;;;17.19;100.00
49515;BME280;35415;47.870;16.058;2023-07-31T04:30:05;97228.47;;;17.16;100.00
49515;BME280;35415;47.870;16.058;2023-07-31T04:32:35;97184.50;;;16.92;100.00
49515;BME280;35415;47.870;16.058;2023-07-31T04:35:05;97192.03;;;16.95;100.00
49515;BME280;35415;47.870;16.058;2023-07-31T04:37:32;97270.69;;;17.44;100.00
49515;BME280;35415;47.870;16.058;2023-07-31T04:40:00;97222.72;;;17.18;100.00
49515;BME280;35415;47.870;16.058;2023-07-31T04:42:28;97241.84;;;17.35;100.00
49515;BME280;35415;47.870;16.058;2023-07-31T04:44:57;97203.47;;;17.05;100.00
49515;BME280;35415;47.870;16.058;2023-07-31T04:47:25;97186.34;;;17.05;100.00
49515;BME280;35415;47.870;16.058;2023-07-31T04:49:52;97252.50;;;17.54;100.00
49515;BME280;35415;47.870;16.058;2023-07-31T04:52:21;97267.25;;;17.61;100.00
49515;BME280;35415;47.870;16.058;2023-07-31T04:54:49;97262.22;;;17.68;95.93
49515;BME280;35415;47.870;16.058;2023-07-31T04:57:16;97267.19;;;17.75;97.76
49515;BME280;35415;47.870;16.058;2023-07-31T04:59:46;97239.44;;;17.64;90.57
49515;BME280;35415;47.870;16.058;2023-07-31T05:02:13;97228.13;;;17.71;89.31
49515;BME280;35415;47.870;16.058;2023-07-31T05:04:41;97243.19;;;17.77;85.40
49515;BME280;35415;47.870;16.058;2023-07-31T05:07:08;97220.66;;;17.85;83.75
49515;BME280;35415;47.870;16.058;2023-07-31T05:09:37;97231.22;;;17.87;83.02
49515;BME280;35415;47.870;16.058;2023-07-31T05:12:09;97270.56;;;18.20;81.33
49515;BME280;35415;47.870;16.058;2023-07-31T05:14:41;97265.59;;;18.22;78.84
49515;BME280;35415;47.870;16.058;2023-07-31T05:17:08;97269.31;;;18.35;77.70
49515;BME280;35415;47.870;16.058;2023-07-31T05:19:36;97238.19;;;18.19;74.30
49515;BME280;35415;47.870;16.058;2023-07-31T05:22:04;97191.69;;;17.89;73.83
49515;BME280;35415;47.870;16.058;2023-07-31T05:24:31;97276.06;;;18.55;75.27
49515;BME280;35415;47.870;16.058;2023-07-31T05:27:01;97241.75;;;18.37;74.51
49515;BME280;35415;47.870;16.058;2023-07-31T05:29:29;97238.41;;;18.48;72.28
49515;BME280;35415;47.870;16.058;2023-07-31T05:31:56;97253.78;;;18.53;72.83
49515;BME280;35415;47.870;16.058;2023-07-31T05:34:27;97234.25;;;18.51;70.48
49515;BME280;35415;47.870;16.058;2023-07-31T05:36:54;97233.78;;;18.49;67.78
49515;BME280;35415;47.870;16.058;2023-07-31T05:39:22;97241.13;;;18.57;67.28
49515;BME280;35415;47.870;16.058;2023-07-31T05:41:49;97268.09;;;18.76;68.14
49515;BME280;35415;47.870;16.058;2023-07-31T05:44:18;97278.19;;;18.92;67.86
49515;BME280;35415;47.870;16.058;2023-07-31T05:46:45;97220.31;;;18.52;66.92
49515;BME280;35415;47.870;16.058;2023-07-31T05:49:13;97263.47;;;18.85;66.83
49515;BME280;35415;47.870;16.058;2023-07-31T05:51:40;97262.66;;;18.76;66.14
49515;BME280;35415;47.870;16.058;2023-07-31T05:54:07;97285.75;;;19.04;65.94
49515;BME280;35415;47.870;16.058;2023-07-31T05:56:34;97264.88;;;18.91;64.60
49515;BME280;35415;47.870;16.058;2023-07-31T05:59:02;97243.09;;;18.74;65.15
49515;BME280;35415;47.870;16.058;2023-07-31T06:01:32;97246.78;;;18.86;62.61
49515;BME280;35415;47.870;16.058;2023-07-31T06:03:59;97265.22;;;19.07;62.06
49515;BME280;35415;47.870;16.058;2023-07-31T06:06:27;97220.34;;;18.87;63.27
49515;BME280;35415;47.870;16.058;2023-07-31T06:08:54;97225.31;;;18.85;61.98
49515;BME280;35415;47.870;16.058;2023-07-31T06:11:24;97304.78;;;19.39;60.80
49515;BME280;35415;47.870;16.058;2023-07-31T06:13:54;97262.31;;;19.20;61.15
49515;BME280;35415;47.870;16.058;2023-07-31T06:16:23;97273.66;;;19.31;61.86
49515;BME280;35415;47.870;16.058;2023-07-31T06:18:52;97252.06;;;19.17;60.91
49515;BME280;35415;47.870;16.058;2023-07-31T06:21:19;97291.28;;;19.51;58.54
49515;BME280;35415;47.870;16.058;2023-07-31T06:23:50;97295.81;;;19.56;59.45
49515;BME280;35415;47.870;16.058;2023-07-31T06:26:18;97250.94;;;19.18;59.12
49515;BME280;35415;47.870;16.058;2023-07-31T06:28:45;97274.94;;;19.42;59.35
49515;BME280;35415;47.870;16.058;2023-07-31T06:34:17;97222.81;;;19.27;57.92
49515;BME280;35415;47.870;16.058;2023-07-31T06:36:44;97231.47;;;19.29;58.26
49515;BME280;35415;47.870;16.058;2023-07-31T06:39:11;97252.94;;;19.47;58.84
49515;BME280;35415;47.870;16.058;2023-07-31T06:41:39;97278.72;;;19.76;58.85
49515;BME280;35415;47.870;16.058;2023-07-31T06:44:06;97269.88;;;19.79;59.26
49515;BME280;35415;47.870;16.058;2023-07-31T06:46:35;97237.53;;;19.60;59.90
49515;BME280;35415;47.870;16.058;2023-07-31T06:49:03;97237.66;;;19.72;56.95
49515;BME280;35415;47.870;16.058;2023-07-31T06:51:32;97216.19;;;19.53;59.89
49515;BME280;35415;47.870;16.058;2023-07-31T06:56:48;97230.06;;;19.78;56.02
49515;BME280;35415;47.870;16.058;2023-07-31T07:02:08;97254.00;;;20.10;56.02
49515;BME280;35415;47.870;16.058;2023-07-31T07:04:35;97252.69;;;20.17;53.49
49515;BME280;35415;47.870;16.058;2023-07-31T07:07:06;97246.25;;;20.21;54.48
49515;BME280;35415;47.870;16.058;2023-07-31T07:09:33;97274.13;;;20.35;53.32
49515;BME280;35415;47.870;16.058;2023-07-31T07:12:01;97203.13;;;20.06;55.08
49515;BME280;35415;47.870;16.058;2023-07-31T07:14:28;97241.47;;;20.39;53.36
49515;BME280;35415;47.870;16.058;2023-07-31T07:16:55;97194.72;;;20.11;54.03
49515;BME280;35415;47.870;16.058;2023-07-31T07:19:23;97243.56;;;20.42;52.54
49515;BME280;35415;47.870;16.058;2023-07-31T07:21:50;97210.53;;;20.26;52.19
49515;BME280;35415;47.870;16.058;2023-07-31T07:24:22;97279.25;;;20.66;51.63
49515;BME280;35415;47.870;16.058;2023-07-31T07:26:49;97198.78;;;20.34;50.42
49515;BME280;35415;47.870;16.058;2023-07-31T07:29:16;97270.59;;;20.85;50.34
49515;BME280;35415;47.870;16.058;2023-07-31T07:31:44;97256.44;;;20.62;50.16
49515;BME280;35415;47.870;16.058;2023-07-31T07:34:12;97188.31;;;20.36;49.97
49515;BME280;35415;47.870;16.058;2023-07-31T07:36:39;97245.91;;;20.73;50.42
49515;BME280;35415;47.870;16.058;2023-07-31T07:39:06;97274.72;;;20.91;49.40
49515;BME280;35415;47.870;16.058;2023-07-31T07:44:48;97261.66;;;20.76;51.41
49515;BME280;35415;47.870;16.058;2023-07-31T07:47:16;97201.13;;;20.45;50.57
49515;BME280;35415;47.870;16.058;2023-07-31T07:49:44;97198.84;;;20.47;49.47
49515;BME280;35415;47.870;16.058;2023-07-31T07:52:11;97249.44;;;20.73;50.10
49515;BME280;35415;47.870;16.058;2023-07-31T07:54:39;97235.91;;;20.77;50.60
49515;BME280;35415;47.870;16.058;2023-07-31T07:57:06;97225.53;;;20.70;51.21
49515;BME280;35415;47.870;16.058;2023-07-31T07:59:39;97192.06;;;20.53;51.47
49515;BME280;35415;47.870;16.058;2023-07-31T08:02:11;97208.31;;;20.70;51.62
49515;BME280;35415;47.870;16.058;2023-07-31T08:13:47;97172.50;;;20.84;51.66
49515;BME280;35415;47.870;16.058;2023-07-31T08:16:16;97201.81;;;20.95;51.04
49515;BME280;35415;47.870;16.058;2023-07-31T08:18:52;97216.66;;;21.27;50.84
49515;BME280;35415;47.870;16.058;2023-07-31T08:21:23;97184.53;;;21.03;49.92
49515;BME280;35415;47.870;16.058;2023-07-31T08:23:50;97201.66;;;21.13;48.92
49515;BME280;35415;47.870;16.058;2023-07-31T08:26:19;97201.38;;;21.26;50.54
49515;BME280;35415;47.870;16.058;2023-07-31T08:28:52;97190.63;;;21.21;49.83
49515;BME280;35415;47.870;16.058;2023-07-31T08:31:27;97222.75;;;21.57;48.82
49515;BME280;35415;47.870;16.058;2023-07-31T08:33:57;97170.16;;;21.27;49.89
49515;BME280;35415;47.870;16.058;2023-07-31T08:36:27;97176.91;;;21.42;50.00
49515;BME280;35415;47.870;16.058;2023-07-31T08:38:57;97158.88;;;21.41;49.47
49515;BME280;35415;47.870;16.058;2023-07-31T08:41:27;97213.09;;;21.84;49.69
49515;BME280;35415;47.870;16.058;2023-07-31T08:43:58;97213.78;;;21.93;47.40
49515;BME280;35415;47.870;16.058;2023-07-31T08:46:27;97200.31;;;22.01;48.25
49515;BME280;35415;47.870;16.058;2023-07-31T08:49:04;97205.69;;;22.09;47.88
49515;BME280;35415;47.870;16.058;2023-07-31T08:51:33;97150.59;;;21.86;47.98
49515;BME280;35415;47.870;16.058;2023-07-31T08:57:05;97233.63;;;22.51;46.38
49515;BME280;35415;47.870;16.058;2023-07-31T08:59:35;97179.75;;;22.31;47.17
49515;BME280;35415;47.870;16.058;2023-07-31T09:02:05;97219.34;;;22.58;47.08
49515;BME280;35415;47.870;16.058;2023-07-31T09:04:39;97177.88;;;22.47;46.83
49515;BME280;35415;47.870;16.058;2023-07-31T09:07:06;97159.31;;;22.41;45.05
49515;BME280;35415;47.870;16.058;2023-07-31T09:09:34;97220.53;;;22.85;44.65
49515;BME280;35415;47.870;16.058;2023-07-31T09:12:05;97220.25;;;23.02;44.35
49515;BME280;35415;47.870;16.058;2023-07-31T09:14:37;97196.75;;;22.89;44.47
49515;BME280;35415;47.870;16.058;2023-07-31T09:17:06;97203.44;;;23.04;44.06
49515;BME280;35415;47.870;16.058;2023-07-31T09:19:36;97155.41;;;22.82;45.05
49515;BME280;35415;47.870;16.058;2023-07-31T09:22:04;97189.28;;;23.18;43.12
49515;BME280;35415;47.870;16.058;2023-07-31T09:24:34;97209.63;;;23.45;42.71
49515;BME280;35415;47.870;16.058;2023-07-31T09:27:20;97192.72;;;23.42;42.61
49515;BME280;35415;47.870;16.058;2023-07-31T09:30:01;97181.28;;;23.40;43.75
49515;BME280;35415;47.870;16.058;2023-07-31T09:32:33;97165.53;;;23.37;40.83
49515;BME280;35415;47.870;16.058;2023-07-31T09:35:15;97214.16;;;23.84;42.35
49515;BME280;35415;47.870;16.058;2023-07-31T09:37:51;97153.91;;;23.44;41.98
49515;BME280;35415;47.870;16.058;2023-07-31T09:40:28;97161.38;;;23.59;40.89
49515;BME280;35415;47.870;16.058;2023-07-31T09:43:00;97209.94;;;24.03;38.51
49515;BME280;35415;47.870;16.058;2023-07-31T09:45:27;97203.44;;;24.11;39.66
49515;BME280;35415;47.870;16.058;2023-07-31T09:47:56;97192.09;;;24.12;38.07
49515;BME280;35415;47.870;16.058;2023-07-31T09:50:28;97205.78;;;24.28;39.46
49515;BME280;35415;47.870;16.058;2023-07-31T09:52:56;97157.09;;;24.09;38.61
49515;BME280;35415;47.870;16.058;2023-07-31T09:55:30;97136.53;;;24.03;39.98
49515;BME280;35415;47.870;16.058;2023-07-31T09:57:58;97140.47;;;24.21;38.63
49515;BME280;35415;47.870;16.058;2023-07-31T10:00:25;97144.88;;;24.42;37.51
49515;BME280;35415;47.870;16.058;2023-07-31T10:03:14;97119.97;;;24.35;40.02
49515;BME280;35415;47.870;16.058;2023-07-31T10:05:55;97109.56;;;24.44;39.69
49515;BME280;35415;47.870;16.058;2023-07-31T10:08:28;97156.09;;;24.91;37.43
49515;BME280;35415;47.870;16.058;2023-07-31T10:11:13;97152.13;;;25.08;36.44
49515;BME280;35415;47.870;16.058;2023-07-31T10:13:42;97158.69;;;25.23;35.61
49515;BME280;35415;47.870;16.058;2023-07-31T10:16:10;97188.59;;;25.47;36.15
49515;BME280;35415;47.870;16.058;2023-07-31T10:18:39;97109.78;;;25.16;35.59
49515;BME280;35415;47.870;16.058;2023-07-31T10:24:12;97155.38;;;25.82;35.91
49515;BME280;35415;47.870;16.058;2023-07-31T10:26:41;97095.09;;;25.54;34.61
49515;BME280;35415;47.870;16.058;2023-07-31T10:29:19;97089.22;;;25.56;35.08
49515;BME280;35415;47.870;16.058;2023-07-31T10:31:50;97097.75;;;25.70;34.88
49515;BME280;35415;47.870;16.058;2023-07-31T10:34:20;97087.94;;;25.72;34.57
49515;BME280;35415;47.870;16.058;2023-07-31T10:36:47;97109.03;;;25.88;34.04
49515;BME280;35415;47.870;16.058;2023-07-31T10:39:37;97125.09;;;26.08;33.42
49515;BME280;35415;47.870;16.058;2023-07-31T10:42:35;97147.06;;;26.31;34.46
49515;BME280;35415;47.870;16.058;2023-07-31T10:45:05;97077.56;;;25.89;33.92
49515;BME280;35415;47.870;16.058;2023-07-31T10:47:37;97078.44;;;25.96;34.69
49515;BME280;35415;47.870;16.058;2023-07-31T10:50:12;97140.16;;;26.45;34.55
49515;BME280;35415;47.870;16.058;2023-07-31T10:52:44;97133.03;;;26.40;32.77
49515;BME280;35415;47.870;16.058;2023-07-31T10:55:31;97098.03;;;26.18;34.70
49515;BME280;35415;47.870;16.058;2023-07-31T10:58:31;97100.25;;;26.35;34.80
49515;BME280;35415;47.870;16.058;2023-07-31T11:01:02;97074.72;;;26.12;34.81
49515;BME280;35415;47.870;16.058;2023-07-31T11:03:46;97085.63;;;26.34;34.79
49515;BME280;35415;47.870;16.058;2023-07-31T11:06:15;97097.78;;;26.56;33.00
49515;BME280;35415;47.870;16.058;2023-07-31T11:08:44;97059.16;;;26.26;33.25
49515;BME280;35415;47.870;16.058;2023-07-31T11:11:18;97090.66;;;26.55;33.25
49515;BME280;35415;47.870;16.058;2023-07-31T11:13:55;97059.41;;;26.44;33.94
49515;BME280;35415;47.870;16.058;2023-07-31T11:17:05;97104.88;;;26.91;35.28
49515;BME280;35415;47.870;16.058;2023-07-31T11:19:33;97069.66;;;26.81;34.44
49515;BME280;35415;47.870;16.058;2023-07-31T11:30:57;97057.00;;;27.13;33.25
49515;BME280;35415;47.870;16.058;2023-07-31T11:33:36;97074.13;;;27.33;34.22
49515;BME280;35415;47.870;16.058;2023-07-31T11:36:04;97071.38;;;27.37;33.19
49515;BME280;35415;47.870;16.058;2023-07-31T11:39:04;97076.56;;;27.42;33.80
49515;BME280;35415;47.870;16.058;2023-07-31T11:41:33;97062.41;;;27.47;34.56
49515;BME280;35415;47.870;16.058;2023-07-31T11:44:16;97014.91;;;27.27;34.24
49515;BME280;35415;47.870;16.058;2023-07-31T11:46:45;97046.72;;;27.62;33.91
49515;BME280;35415;47.870;16.058;2023-07-31T11:49:13;97021.38;;;27.52;34.48
49515;BME280;35415;47.870;16.058;2023-07-31T11:51:42;97021.84;;;27.62;33.58
49515;BME280;35415;47.870;16.058;2023-07-31T11:54:14;97044.91;;;27.83;32.73
49515;BME280;35415;47.870;16.058;2023-07-31T11:56:43;97017.25;;;27.80;32.46
49515;BME280;35415;47.870;16.058;2023-07-31T11:59:14;96996.66;;;27.70;33.99
49515;BME280;35415;47.870;16.058;2023-07-31T12:01:42;97011.03;;;27.94;32.51
49515;BME280;35415;47.870;16.058;2023-07-31T12:04:12;96994.84;;;27.99;31.56
49515;BME280;35415;47.870;16.058;2023-07-31T12:06:39;96981.44;;;28.01;30.72
49515;BME280;35415;47.870;16.058;2023-07-31T12:09:06;96996.16;;;28.23;30.70
49515;BME280;35415;47.870;16.058;2023-07-31T12:11:49;96979.09;;;28.10;31.85
49515;BME280;35415;47.870;16.058;2023-07-31T12:14:24;97001.72;;;28.37;29.56
49515;BME280;35415;47.870;16.058;2023-07-31T12:17:25;96957.38;;;28.16;29.56
49515;BME280;35415;47.870;16.058;2023-07-31T12:20:00;96968.56;;;28.52;30.82
49515;BME280;35415;47.870;16.058;2023-07-31T12:28:58;96961.47;;;28.72;28.94
49515;BME280;35415;47.870;16.058;2023-07-31T12:31:28;96950.84;;;28.74;29.70
49515;BME280;35415;47.870;16.058;2023-07-31T12:34:00;96951.22;;;28.80;29.60
49515;BME280;35415;47.870;16.058;2023-07-31T12:37:00;96961.13;;;29.05;30.47
49515;BME280;35415;47.870;16.058;2023-07-31T12:39:30;96952.84;;;29.16;29.43
49515;BME280;35415;47.870;16.058;2023-07-31T12:41:57;96948.88;;;29.03;29.05
49515;BME280;35415;47.870;16.058;2023-07-31T12:44:35;96937.41;;;29.04;29.60
49515;BME280;35415;47.870;16.058;2023-07-31T12:47:21;96897.09;;;28.89;29.66
49515;BME280;35415;47.870;16.058;2023-07-31T12:49:48;96948.09;;;29.24;28.33
49515;BME280;35415;47.870;16.058;2023-07-31T12:52:20;96944.91;;;29.40;29.44
49515;BME280;35415;47.870;16.058;2023-07-31T12:54:47;96942.13;;;29.50;30.61
49515;BME280;35415;47.870;16.058;2023-07-31T12:57:14;96931.84;;;29.51;28.57
49515;BME280;35415;47.870;16.058;2023-07-31T12:59:41;96911.25;;;29.45;28.25
49515;BME280;35415;47.870;16.058;2023-07-31T13:02:09;96934.16;;;29.70;28.55
49515;BME280;35415;47.870;16.058;2023-07-31T13:04:36;96925.44;;;29.72;26.74
49515;BME280;35415;47.870;16.058;2023-07-31T13:07:04;96921.06;;;29.71;26.53
49515;BME280;35415;47.870;16.058;2023-07-31T13:09:46;96890.66;;;29.60;27.79
49515;BME280;35415;47.870;16.058;2023-07-31T13:12:23;96907.53;;;29.94;28.06
49515;BME280;35415;47.870;16.058;2023-07-31T13:14:50;96871.56;;;29.76;27.43
49515;BME280;35415;47.870;16.058;2023-07-31T13:17:20;96855.34;;;29.71;26.52
49515;BME280;35415;47.870;16.058;2023-07-31T13:19:47;96878.97;;;30.01;26.75
49515;BME280;35415;47.870;16.058;2023-07-31T13:22:16;96906.63;;;30.18;26.29
49515;BME280;35415;47.870;16.058;2023-07-31T13:24:52;96900.31;;;30.14;27.18
49515;BME280;35415;47.870;16.058;2023-07-31T13:27:35;96837.13;;;29.77;25.61
49515;BME280;35415;47.870;16.058;2023-07-31T13:30:03;96847.34;;;29.91;27.48
49515;BME280;35415;47.870;16.058;2023-07-31T13:32:32;96835.09;;;29.81;25.92
49515;BME280;35415;47.870;16.058;2023-07-31T13:35:03;96894.72;;;30.25;25.87
49515;BME280;35415;47.870;16.058;2023-07-31T13:37:32;96850.84;;;30.09;26.42
49515;BME280;35415;47.870;16.058;2023-07-31T13:40:02;96834.66;;;29.93;25.60
49515;BME280;35415;47.870;16.058;2023-07-31T13:42:31;96876.13;;;30.18;26.50
49515;BME280;35415;47.870;16.058;2023-07-31T13:44:58;96876.13;;;30.18;25.20
49515;BME280;35415;47.870;16.058;2023-07-31T13:47:29;96844.53;;;29.98;26.23
49515;BME280;35415;47.870;16.058;2023-07-31T13:49:57;96892.34;;;30.23;25.78